Pine Neck, New York
Current Conditions -  °F | °C
As of 10:53 AM on Saturday 22 Nov 2014 (Local Time) from KFOK Reporting Station
Clear Clear  
Wind Chill: 33°   Ceiling: Unl
Heat Index: 40°   Visibility: 10mi
Dew Point: 14°   Wind: 12mph
Humidity: 35%   Direction: 230°SW
Pressure: 30.42"   Gusts: NA
Location:  40.9692°N, 72.306°W
Report Text: KFOK 221553Z 23010KT 10SM CLR 04/M10 A3042 RMK AO2 SLP302 T00441100
Loading
Personal Weather Stations






























Interactive Weather Map New forecast layout! Learn more

10-Day Weather Forecast

Advertisements
Track Severe Weather on mobile